sensor_id;sensor_type;location;lat;lon;timestamp;pressure;altitude;pressure_sealevel;temperature;humidity
51245;BME280;37840;47.562;18.738;2023-04-25T00:02:21;98700.19;;;12.42;74.77
51245;BME280;37840;47.562;18.738;2023-04-25T00:04:48;98699.34;;;12.41;75.11
51245;BME280;37840;47.562;18.738;2023-04-25T00:07:14;98691.63;;;12.38;75.47
51245;BME280;37840;47.562;18.738;2023-04-25T00:09:42;98696.97;;;12.38;75.51
51245;BME280;37840;47.562;18.738;2023-04-25T00:12:08;98698.78;;;12.38;75.89
51245;BME280;37840;47.562;18.738;2023-04-25T00:14:34;98691.69;;;12.29;76.66
51245;BME280;37840;47.562;18.738;2023-04-25T00:17:01;98691.97;;;12.26;77.07
51245;BME280;37840;47.562;18.738;2023-04-25T00:19:28;98691.13;;;12.25;77.07
51245;BME280;37840;47.562;18.738;2023-04-25T00:21:55;98692.66;;;12.28;77.35
51245;BME280;37840;47.562;18.738;2023-04-25T00:24:21;98697.28;;;12.26;77.45
51245;BME280;37840;47.562;18.738;2023-04-25T00:26:47;98691.00;;;12.27;77.26
51245;BME280;37840;47.562;18.738;2023-04-25T00:29:13;98687.19;;;12.29;77.17
51245;BME280;37840;47.562;18.738;2023-04-25T00:31:39;98692.78;;;12.26;77.23
51245;BME280;37840;47.562;18.738;2023-04-25T00:34:06;98691.81;;;12.27;77.38
51245;BME280;37840;47.562;18.738;2023-04-25T00:36:32;98690.87;;;12.18;77.61
51245;BME280;37840;47.562;18.738;2023-04-25T00:38:58;98682.56;;;12.21;77.32
51245;BME280;37840;47.562;18.738;2023-04-25T00:41:25;98688.06;;;12.20;77.40
51245;BME280;37840;47.562;18.738;2023-04-25T00:43:53;98687.91;;;12.21;76.99
51245;BME280;37840;47.562;18.738;2023-04-25T00:46:20;98680.34;;;12.17;76.90
51245;BME280;37840;47.562;18.738;2023-04-25T00:48:46;98680.78;;;12.12;76.46
51245;BME280;37840;47.562;18.738;2023-04-25T00:51:16;98675.16;;;12.15;76.33
51245;BME280;37840;47.562;18.738;2023-04-25T00:53:45;98677.97;;;12.14;76.10
51245;BME280;37840;47.562;18.738;2023-04-25T00:56:11;98671.09;;;12.11;75.46
51245;BME280;37840;47.562;18.738;2023-04-25T00:58:37;98671.97;;;12.12;75.37
51245;BME280;37840;47.562;18.738;2023-04-25T01:01:04;98676.16;;;12.14;75.11
51245;BME280;37840;47.562;18.738;2023-04-25T01:03:32;98672.66;;;12.14;75.22
51245;BME280;37840;47.562;18.738;2023-04-25T01:05:58;98676.72;;;12.18;74.35
51245;BME280;37840;47.562;18.738;2023-04-25T01:08:24;98671.06;;;12.21;74.13
51245;BME280;37840;47.562;18.738;2023-04-25T01:10:51;98670.69;;;12.16;73.71
51245;BME280;37840;47.562;18.738;2023-04-25T01:13:17;98657.19;;;12.17;73.49
51245;BME280;37840;47.562;18.738;2023-04-25T01:15:43;98660.31;;;12.13;72.77
51245;BME280;37840;47.562;18.738;2023-04-25T01:18:09;98661.13;;;12.13;72.88
51245;BME280;37840;47.562;18.738;2023-04-25T01:20:37;98658.06;;;12.08;71.85
51245;BME280;37840;47.562;18.738;2023-04-25T01:23:04;98651.22;;;11.96;71.91
51245;BME280;37840;47.562;18.738;2023-04-25T01:25:30;98656.88;;;11.93;71.82
51245;BME280;37840;47.562;18.738;2023-04-25T01:27:58;98660.66;;;11.90;71.35
51245;BME280;37840;47.562;18.738;2023-04-25T01:30:26;98653.03;;;11.86;71.31
51245;BME280;37840;47.562;18.738;2023-04-25T01:32:55;98653.91;;;11.86;71.64
51245;BME280;37840;47.562;18.738;2023-04-25T01:35:22;98661.03;;;11.86;71.50
51245;BME280;37840;47.562;18.738;2023-04-25T01:37:49;98656.72;;;11.84;71.72
51245;BME280;37840;47.562;18.738;2023-04-25T01:40:17;98662.31;;;11.81;71.45
51245;BME280;37840;47.562;18.738;2023-04-25T01:42:45;98650.44;;;11.76;71.23
51245;BME280;37840;47.562;18.738;2023-04-25T01:45:11;98657.28;;;11.78;71.36
51245;BME280;37840;47.562;18.738;2023-04-25T01:47:38;98653.34;;;11.73;71.38
51245;BME280;37840;47.562;18.738;2023-04-25T01:50:07;98654.78;;;11.67;71.56
51245;BME280;37840;47.562;18.738;2023-04-25T01:52:33;98654.09;;;11.65;71.91
51245;BME280;37840;47.562;18.738;2023-04-25T01:55:02;98665.56;;;11.66;71.75
51245;BME280;37840;47.562;18.738;2023-04-25T01:57:28;98660.56;;;11.62;71.45
51245;BME280;37840;47.562;18.738;2023-04-25T02:00:00;98657.03;;;11.62;71.35
51245;BME280;37840;47.562;18.738;2023-04-25T02:02:26;98656.62;;;11.57;71.53
51245;BME280;37840;47.562;18.738;2023-04-25T02:04:52;98656.19;;;11.61;71.13
51245;BME280;37840;47.562;18.738;2023-04-25T02:07:20;98657.31;;;11.59;71.04
51245;BME280;37840;47.562;18.738;2023-04-25T02:09:46;98664.22;;;11.52;71.18
51245;BME280;37840;47.562;18.738;2023-04-25T02:12:12;98666.69;;;11.53;71.23
51245;BME280;37840;47.562;18.738;2023-04-25T02:14:38;98656.62;;;11.47;70.90
51245;BME280;37840;47.562;18.738;2023-04-25T02:17:04;98666.16;;;11.40;71.45
51245;BME280;37840;47.562;18.738;2023-04-25T02:19:31;98672.75;;;11.46;71.58
51245;BME280;37840;47.562;18.738;2023-04-25T02:21:57;98665.31;;;11.39;71.42
51245;BME280;37840;47.562;18.738;2023-04-25T02:24:23;98673.03;;;11.42;71.15
51245;BME280;37840;47.562;18.738;2023-04-25T02:26:49;98675.94;;;11.49;70.92
51245;BME280;37840;47.562;18.738;2023-04-25T02:29:15;98674.00;;;11.51;70.89
51245;BME280;37840;47.562;18.738;2023-04-25T02:31:42;98674.41;;;11.47;70.81
51245;BME280;37840;47.562;18.738;2023-04-25T02:34:08;98675.25;;;11.47;70.55
51245;BME280;37840;47.562;18.738;2023-04-25T02:36:34;98677.78;;;11.49;70.52
51245;BME280;37840;47.562;18.738;2023-04-25T02:39:01;98676.38;;;11.45;70.55
51245;BME280;37840;47.562;18.738;2023-04-25T02:41:28;98679.59;;;11.48;70.55
51245;BME280;37840;47.562;18.738;2023-04-25T02:43:54;98675.41;;;11.46;70.34
51245;BME280;37840;47.562;18.738;2023-04-25T02:46:20;98679.19;;;11.33;70.62
51245;BME280;37840;47.562;18.738;2023-04-25T02:48:46;98672.03;;;11.34;70.24
51245;BME280;37840;47.562;18.738;2023-04-25T02:51:12;98671.62;;;11.29;70.80
51245;BME280;37840;47.562;18.738;2023-04-25T02:53:39;98684.94;;;11.29;70.88
51245;BME280;37840;47.562;18.738;2023-04-25T02:56:05;98672.31;;;11.21;70.91
51245;BME280;37840;47.562;18.738;2023-04-25T02:58:31;98679.75;;;11.27;70.86
51245;BME280;37840;47.562;18.738;2023-04-25T03:00:57;98680.31;;;11.31;70.86
51245;BME280;37840;47.562;18.738;2023-04-25T03:03:23;98674.13;;;11.30;70.91
51245;BME280;37840;47.562;18.738;2023-04-25T03:05:50;98675.81;;;11.21;71.28
51245;BME280;37840;47.562;18.738;2023-04-25T03:08:19;98674.16;;;11.20;71.52
51245;BME280;37840;47.562;18.738;2023-04-25T03:10:45;98668.00;;;11.20;71.26
51245;BME280;37840;47.562;18.738;2023-04-25T03:13:11;98674.16;;;11.20;71.54
51245;BME280;37840;47.562;18.738;2023-04-25T03:15:38;98680.44;;;11.19;71.86
51245;BME280;37840;47.562;18.738;2023-04-25T03:18:04;98676.38;;;11.15;71.77
51245;BME280;37840;47.562;18.738;2023-04-25T03:20:30;98679.59;;;11.19;71.77
51245;BME280;37840;47.562;18.738;2023-04-25T03:22:56;98680.59;;;11.18;72.09
51245;BME280;37840;47.562;18.738;2023-04-25T03:25:22;98680.28;;;11.11;72.25
51245;BME280;37840;47.562;18.738;2023-04-25T03:27:48;98676.78;;;11.11;72.41
51245;BME280;37840;47.562;18.738;2023-04-25T03:30:14;98673.28;;;11.10;72.31
51245;BME280;37840;47.562;18.738;2023-04-25T03:32:40;98679.28;;;11.02;72.74
51245;BME280;37840;47.562;18.738;2023-04-25T03:35:06;98672.03;;;11.05;72.40
51245;BME280;37840;47.562;18.738;2023-04-25T03:37:32;98673.56;;;10.97;72.80
51245;BME280;37840;47.562;18.738;2023-04-25T03:39:58;98674.06;;;10.81;73.27
51245;BME280;37840;47.562;18.738;2023-04-25T03:42:24;98686.12;;;10.86;73.35
51245;BME280;37840;47.562;18.738;2023-04-25T03:44:51;98680.41;;;10.90;72.94
51245;BME280;37840;47.562;18.738;2023-04-25T03:47:20;98681.25;;;10.91;72.76
51245;BME280;37840;47.562;18.738;2023-04-25T03:49:46;98677.84;;;10.79;73.28
51245;BME280;37840;47.562;18.738;2023-04-25T03:52:12;98673.41;;;10.89;72.94
51245;BME280;37840;47.562;18.738;2023-04-25T03:54:38;98678.72;;;10.89;72.97
51245;BME280;37840;47.562;18.738;2023-04-25T03:57:04;98680.84;;;10.95;72.79
51245;BME280;37840;47.562;18.738;2023-04-25T03:59:30;98681.38;;;10.89;73.24
51245;BME280;37840;47.562;18.738;2023-04-25T04:01:56;98684.03;;;10.89;72.93
51245;BME280;37840;47.562;18.738;2023-04-25T04:04:22;98686.16;;;10.95;73.18
51245;BME280;37840;47.562;18.738;2023-04-25T04:06:48;98685.03;;;10.98;73.52
51245;BME280;37840;47.562;18.738;2023-04-25T04:09:14;98689.37;;;10.99;73.86
51245;BME280;37840;47.562;18.738;2023-04-25T04:11:41;98684.78;;;11.01;74.45
51245;BME280;37840;47.562;18.738;2023-04-25T04:14:07;98694.72;;;10.99;74.69
51245;BME280;37840;47.562;18.738;2023-04-25T04:16:33;98700.88;;;10.99;75.37
51245;BME280;37840;47.562;18.738;2023-04-25T04:18:59;98695.09;;;10.94;76.50
51245;BME280;37840;47.562;18.738;2023-04-25T04:21:25;98701.41;;;10.93;76.82
51245;BME280;37840;47.562;18.738;2023-04-25T04:23:52;98702.94;;;10.86;77.12
51245;BME280;37840;47.562;18.738;2023-04-25T04:26:20;98705.44;;;10.78;77.87
51245;BME280;37840;47.562;18.738;2023-04-25T04:28:49;98703.63;;;10.78;77.76
51245;BME280;37840;47.562;18.738;2023-04-25T04:31:20;98701.62;;;10.71;78.29
51245;BME280;37840;47.562;18.738;2023-04-25T04:33:47;98703.56;;;10.69;78.87
51245;BME280;37840;47.562;18.738;2023-04-25T04:36:13;98706.37;;;10.67;79.09
51245;BME280;37840;47.562;18.738;2023-04-25T04:38:39;98703.72;;;10.67;79.44
51245;BME280;37840;47.562;18.738;2023-04-25T04:41:08;98702.16;;;10.65;79.54
51245;BME280;37840;47.562;18.738;2023-04-25T04:43:34;98699.38;;;10.66;79.52
51245;BME280;37840;47.562;18.738;2023-04-25T04:46:00;98706.47;;;10.56;80.02
51245;BME280;37840;47.562;18.738;2023-04-25T04:48:26;98709.00;;;10.57;80.70
51245;BME280;37840;47.562;18.738;2023-04-25T04:50:56;98709.84;;;10.58;81.08
51245;BME280;37840;47.562;18.738;2023-04-25T04:53:22;98719.91;;;10.54;81.43
51245;BME280;37840;47.562;18.738;2023-04-25T04:55:47;98711.94;;;10.54;81.35
51245;BME280;37840;47.562;18.738;2023-04-25T04:58:13;98716.41;;;10.54;81.31
51245;BME280;37840;47.562;18.738;2023-04-25T05:00:39;98715.16;;;10.58;81.23
51245;BME280;37840;47.562;18.738;2023-04-25T05:03:05;98704.09;;;10.53;81.18
51245;BME280;37840;47.562;18.738;2023-04-25T05:05:31;98714.72;;;10.53;81.58
51245;BME280;37840;47.562;18.738;2023-04-25T05:07:57;98702.28;;;10.53;81.69
51245;BME280;37840;47.562;18.738;2023-04-25T05:10:23;98711.47;;;10.49;82.06
51245;BME280;37840;47.562;18.738;2023-04-25T05:12:49;98713.59;;;10.46;82.05
51245;BME280;37840;47.562;18.738;2023-04-25T05:15:16;98709.34;;;10.43;82.62
51245;BME280;37840;47.562;18.738;2023-04-25T05:17:42;98702.97;;;10.25;83.43
51245;BME280;37840;47.562;18.738;2023-04-25T05:20:08;98698.00;;;10.31;83.33
51245;BME280;37840;47.562;18.738;2023-04-25T05:22:35;98702.91;;;10.36;83.32
51245;BME280;37840;47.562;18.738;2023-04-25T05:25:01;98700.38;;;10.34;83.37
51245;BME280;37840;47.562;18.738;2023-04-25T05:27:27;98703.69;;;10.27;84.19
51245;BME280;37840;47.562;18.738;2023-04-25T05:29:53;98701.59;;;10.30;84.18
51245;BME280;37840;47.562;18.738;2023-04-25T05:32:19;98701.56;;;10.20;84.26
51245;BME280;37840;47.562;18.738;2023-04-25T05:34:44;98698.50;;;10.25;84.36
51245;BME280;37840;47.562;18.738;2023-04-25T05:39:56;98704.44;;;10.38;84.18
51245;BME280;37840;47.562;18.738;2023-04-25T05:42:22;98701.53;;;10.42;84.18
51245;BME280;37840;47.562;18.738;2023-04-25T05:44:48;98698.59;;;10.45;84.67
51245;BME280;37840;47.562;18.738;2023-04-25T05:47:14;98694.53;;;10.40;84.14
51245;BME280;37840;47.562;18.738;2023-04-25T05:49:40;98700.03;;;10.49;83.93
51245;BME280;37840;47.562;18.738;2023-04-25T05:52:06;98695.00;;;10.55;83.79
51245;BME280;37840;47.562;18.738;2023-04-25T05:54:32;98690.97;;;10.61;83.06
51245;BME280;37840;47.562;18.738;2023-04-25T05:56:58;98691.97;;;10.70;82.60
51245;BME280;37840;47.562;18.738;2023-04-25T05:59:24;98694.22;;;10.74;82.47
51245;BME280;37840;47.562;18.738;2023-04-25T06:01:50;98685.28;;;10.85;83.14
51245;BME280;37840;47.562;18.738;2023-04-25T06:04:17;98689.78;;;10.94;82.81
51245;BME280;37840;47.562;18.738;2023-04-25T06:06:43;98680.53;;;10.98;81.18
51245;BME280;37840;47.562;18.738;2023-04-25T06:09:09;98692.59;;;11.02;80.55
51245;BME280;37840;47.562;18.738;2023-04-25T06:11:34;98686.31;;;11.13;80.14
51245;BME280;37840;47.562;18.738;2023-04-25T06:14:00;98693.88;;;11.28;81.55
51245;BME280;37840;47.562;18.738;2023-04-25T06:16:26;98688.72;;;11.36;79.08
51245;BME280;37840;47.562;18.738;2023-04-25T06:18:52;98684.78;;;11.40;79.99
51245;BME280;37840;47.562;18.738;2023-04-25T06:21:18;98683.25;;;11.47;79.50
51245;BME280;37840;47.562;18.738;2023-04-25T06:23:44;98683.81;;;11.60;78.57
51245;BME280;37840;47.562;18.738;2023-04-25T06:26:10;98687.28;;;11.71;77.73
51245;BME280;37840;47.562;18.738;2023-04-25T06:28:36;98682.09;;;11.79;78.37
51245;BME280;37840;47.562;18.738;2023-04-25T06:31:02;98686.88;;;11.66;77.04
51245;BME280;37840;47.562;18.738;2023-04-25T06:33:28;98691.38;;;11.65;77.46
51245;BME280;37840;47.562;18.738;2023-04-25T06:35:54;98700.72;;;11.79;76.89
51245;BME280;37840;47.562;18.738;2023-04-25T06:38:20;98694.12;;;11.83;78.03
51245;BME280;37840;47.562;18.738;2023-04-25T06:40:46;98693.69;;;11.88;77.42
51245;BME280;37840;47.562;18.738;2023-04-25T06:43:12;98698.50;;;11.94;76.80
51245;BME280;37840;47.562;18.738;2023-04-25T06:45:38;98695.00;;;12.03;76.57
51245;BME280;37840;47.562;18.738;2023-04-25T06:48:03;98694.25;;;12.11;76.72
51245;BME280;37840;47.562;18.738;2023-04-25T06:50:29;98688.78;;;12.12;76.27
51245;BME280;37840;47.562;18.738;2023-04-25T06:52:55;98685.72;;;11.97;76.26
51245;BME280;37840;47.562;18.738;2023-04-25T06:55:21;98689.97;;;11.90;76.41
51245;BME280;37840;47.562;18.738;2023-04-25T06:57:47;98690.50;;;12.03;75.76
51245;BME280;37840;47.562;18.738;2023-04-25T07:00:13;98691.44;;;12.12;76.24
51245;BME280;37840;47.562;18.738;2023-04-25T07:02:39;98685.97;;;12.14;75.23
51245;BME280;37840;47.562;18.738;2023-04-25T07:05:08;98696.34;;;12.17;74.35
51245;BME280;37840;47.562;18.738;2023-04-25T07:07:33;98684.78;;;12.26;74.18
51245;BME280;37840;47.562;18.738;2023-04-25T07:09:59;98687.06;;;12.21;74.19
51245;BME280;37840;47.562;18.738;2023-04-25T07:12:26;98692.50;;;12.29;74.18
51245;BME280;37840;47.562;18.738;2023-04-25T07:14:52;98697.53;;;12.32;74.21
51245;BME280;37840;47.562;18.738;2023-04-25T07:17:18;98690.22;;;12.44;74.62
51245;BME280;37840;47.562;18.738;2023-04-25T07:19:43;98680.34;;;12.54;74.48
51245;BME280;37840;47.562;18.738;2023-04-25T07:22:10;98675.41;;;12.59;74.47
51245;BME280;37840;47.562;18.738;2023-04-25T07:24:36;98682.13;;;12.63;73.40
51245;BME280;37840;47.562;18.738;2023-04-25T07:27:02;98687.44;;;12.63;73.07
51245;BME280;37840;47.562;18.738;2023-04-25T07:29:31;98687.06;;;12.58;73.20
51245;BME280;37840;47.562;18.738;2023-04-25T07:31:57;98677.84;;;12.71;72.12
51245;BME280;37840;47.562;18.738;2023-04-25T07:34:23;98689.66;;;12.68;71.53
51245;BME280;37840;47.562;18.738;2023-04-25T07:36:49;98686.03;;;12.69;72.02
51245;BME280;37840;47.562;18.738;2023-04-25T07:39:15;98681.16;;;12.64;71.08
51245;BME280;37840;47.562;18.738;2023-04-25T07:41:41;98687.44;;;12.63;71.96
51245;BME280;37840;47.562;18.738;2023-04-25T07:44:07;98688.97;;;12.66;71.55
51245;BME280;37840;47.562;18.738;2023-04-25T07:46:32;98696.59;;;12.61;70.82
51245;BME280;37840;47.562;18.738;2023-04-25T07:48:58;98691.97;;;12.63;70.30
51245;BME280;37840;47.562;18.738;2023-04-25T07:51:24;98693.72;;;12.72;69.21
51245;BME280;37840;47.562;18.738;2023-04-25T07:53:51;98693.16;;;12.69;70.88
51245;BME280;37840;47.562;18.738;2023-04-25T07:56:17;98694.56;;;12.73;71.32
51245;BME280;37840;47.562;18.738;2023-04-25T07:58:43;98700.19;;;12.70;70.78
51245;BME280;37840;47.562;18.738;2023-04-25T08:01:09;98704.00;;;12.67;71.32
51245;BME280;37840;47.562;18.738;2023-04-25T08:03:35;98704.47;;;12.62;72.25
51245;BME280;37840;47.562;18.738;2023-04-25T08:06:01;98698.13;;;12.63;71.29
51245;BME280;37840;47.562;18.738;2023-04-25T08:08:27;98703.47;;;12.63;72.24
51245;BME280;37840;47.562;18.738;2023-04-25T08:10:53;98703.56;;;12.72;71.52
51245;BME280;37840;47.562;18.738;2023-04-25T08:13:18;98696.47;;;12.62;71.42
51245;BME280;37840;47.562;18.738;2023-04-25T08:15:44;98688.94;;;12.48;71.59
51245;BME280;37840;47.562;18.738;2023-04-25T08:18:10;98693.03;;;12.42;71.67
51245;BME280;37840;47.562;18.738;2023-04-25T08:20:38;98686.28;;;12.38;71.89
51245;BME280;37840;47.562;18.738;2023-04-25T08:23:04;98691.09;;;12.35;72.46
51245;BME280;37840;47.562;18.738;2023-04-25T08:25:30;98695.00;;;12.40;71.90
51245;BME280;37840;47.562;18.738;2023-04-25T08:27:56;98704.69;;;12.41;72.48
51245;BME280;37840;47.562;18.738;2023-04-25T08:30:22;98712.25;;;12.36;72.72
51245;BME280;37840;47.562;18.738;2023-04-25T08:32:48;98712.25;;;12.36;73.17
51245;BME280;37840;47.562;18.738;2023-04-25T08:35:14;98719.31;;;12.28;73.56
51245;BME280;37840;47.562;18.738;2023-04-25T08:37:42;98720.13;;;12.38;73.70
51245;BME280;37840;47.562;18.738;2023-04-25T08:40:11;98719.44;;;12.36;74.08
51245;BME280;37840;47.562;18.738;2023-04-25T08:42:37;98716.16;;;12.52;74.10
51245;BME280;37840;47.562;18.738;2023-04-25T08:45:04;98717.50;;;12.56;73.38
51245;BME280;37840;47.562;18.738;2023-04-25T08:47:33;98720.47;;;12.62;72.28
51245;BME280;37840;47.562;18.738;2023-04-25T08:50:02;98722.69;;;12.67;71.02
51245;BME280;37840;47.562;18.738;2023-04-25T08:52:34;98725.25;;;12.59;71.12
51245;BME280;37840;47.562;18.738;2023-04-25T08:55:02;98732.06;;;12.71;70.94
51245;BME280;37840;47.562;18.738;2023-04-25T08:57:29;98730.78;;;12.75;71.96
51245;BME280;37840;47.562;18.738;2023-04-25T08:59:57;98733.09;;;12.88;73.22
51245;BME280;37840;47.562;18.738;2023-04-25T09:02:24;98721.22;;;13.00;72.11
51245;BME280;37840;47.562;18.738;2023-04-25T09:04:50;98728.50;;;13.08;70.57
51245;BME280;37840;47.562;18.738;2023-04-25T09:07:16;98718.88;;;13.15;69.78
51245;BME280;37840;47.562;18.738;2023-04-25T09:09:46;98724.44;;;13.04;69.32
51245;BME280;37840;47.562;18.738;2023-04-25T09:12:13;98718.50;;;13.10;68.77
51245;BME280;37840;47.562;18.738;2023-04-25T09:14:39;98720.63;;;13.06;69.49
51245;BME280;37840;47.562;18.738;2023-04-25T09:17:05;98725.69;;;13.10;70.38
51245;BME280;37840;47.562;18.738;2023-04-25T09:19:35;98725.59;;;13.19;69.44
51245;BME280;37840;47.562;18.738;2023-04-25T09:22:03;98728.34;;;13.27;68.12
51245;BME280;37840;47.562;18.738;2023-04-25T09:26:57;98726.69;;;13.26;68.73
51245;BME280;37840;47.562;18.738;2023-04-25T09:29:31;98724.91;;;13.17;68.79
51245;BME280;37840;47.562;18.738;2023-04-25T09:32:11;98722.09;;;13.19;69.26
51245;BME280;37840;47.562;18.738;2023-04-25T09:34:42;98730.66;;;13.22;68.00
51245;BME280;37840;47.562;18.738;2023-04-25T09:37:11;98719.66;;;13.25;68.30
51245;BME280;37840;47.562;18.738;2023-04-25T09:39:38;98725.47;;;13.21;67.19
51245;BME280;37840;47.562;18.738;2023-04-25T09:42:05;98719.97;;;13.22;67.40
51245;BME280;37840;47.562;18.738;2023-04-25T09:44:31;98719.75;;;13.16;66.80
51245;BME280;37840;47.562;18.738;2023-04-25T09:46:57;98726.38;;;13.12;66.58
51245;BME280;37840;47.562;18.738;2023-04-25T09:49:25;98717.66;;;13.10;66.42
51245;BME280;37840;47.562;18.738;2023-04-25T09:51:57;98711.56;;;12.99;66.58
51245;BME280;37840;47.562;18.738;2023-04-25T09:54:24;98730.53;;;12.96;67.08
51245;BME280;37840;47.562;18.738;2023-04-25T09:56:52;98722.91;;;13.01;66.13
51245;BME280;37840;47.562;18.738;2023-04-25T09:59:22;98723.19;;;12.98;66.75
51245;BME280;37840;47.562;18.738;2023-04-25T10:01:52;98725.88;;;12.98;66.34
51245;BME280;37840;47.562;18.738;2023-04-25T10:04:23;98728.25;;;13.01;66.60
51245;BME280;37840;47.562;18.738;2023-04-25T10:06:50;98727.66;;;13.08;67.05
51245;BME280;37840;47.562;18.738;2023-04-25T10:09:20;98722.88;;;13.11;66.38
51245;BME280;37840;47.562;18.738;2023-04-25T10:11:47;98719.87;;;13.14;67.32
51245;BME280;37840;47.562;18.738;2023-04-25T10:14:16;98721.34;;;13.26;67.20
51245;BME280;37840;47.562;18.738;2023-04-25T10:16:42;98716.41;;;13.32;67.35
51245;BME280;37840;47.562;18.738;2023-04-25T10:19:12;98723.75;;;13.30;67.19
51245;BME280;37840;47.562;18.738;2023-04-25T10:21:46;98726.22;;;13.41;66.06
51245;BME280;37840;47.562;18.738;2023-04-25T10:24:14;98729.53;;;13.43;65.30
51245;BME280;37840;47.562;18.738;2023-04-25T10:26:41;98736.13;;;13.49;65.21
51245;BME280;37840;47.562;18.738;2023-04-25T10:29:09;98734.91;;;13.61;66.38
51245;BME280;37840;47.562;18.738;2023-04-25T10:31:45;98733.00;;;13.71;66.57
51245;BME280;37840;47.562;18.738;2023-04-25T10:34:11;98732.19;;;13.79;62.50
51245;BME280;37840;47.562;18.738;2023-04-25T10:36:37;98742.13;;;13.86;63.49
51245;BME280;37840;47.562;18.738;2023-04-25T10:39:04;98736.25;;;13.83;61.88
51245;BME280;37840;47.562;18.738;2023-04-25T10:41:52;98731.97;;;13.90;62.38
51245;BME280;37840;47.562;18.738;2023-04-25T10:44:18;98734.03;;;13.96;62.42
51245;BME280;37840;47.562;18.738;2023-04-25T10:46:45;98725.91;;;14.06;61.75
51245;BME280;37840;47.562;18.738;2023-04-25T10:49:28;98720.69;;;14.04;59.63
51245;BME280;37840;47.562;18.738;2023-04-25T10:54:52;98727.84;;;14.22;59.62
51245;BME280;37840;47.562;18.738;2023-04-25T10:57:39;98721.28;;;14.16;59.81
51245;BME280;37840;47.562;18.738;2023-04-25T11:02:32;98735.75;;;14.32;61.53
51245;BME280;37840;47.562;18.738;2023-04-25T11:05:02;98736.59;;;14.32;59.59
51245;BME280;37840;47.562;18.738;2023-04-25T11:10:28;98736.25;;;14.27;59.78
51245;BME280;37840;47.562;18.738;2023-04-25T11:12:55;98739.06;;;14.25;61.41
51245;BME280;37840;47.562;18.738;2023-04-25T11:15:21;98737.81;;;14.38;59.85
51245;BME280;37840;47.562;18.738;2023-04-25T11:17:47;98740.12;;;14.33;59.44
51245;BME280;37840;47.562;18.738;2023-04-25T11:20:13;98744.31;;;14.09;61.19
51245;BME280;37840;47.562;18.738;2023-04-25T11:22:41;98736.44;;;14.07;58.92
51245;BME280;37840;47.562;18.738;2023-04-25T11:25:11;98748.19;;;14.15;58.59
51245;BME280;37840;47.562;18.738;2023-04-25T11:27:39;98748.72;;;14.18;56.83
51245;BME280;37840;47.562;18.738;2023-04-25T11:30:15;98757.63;;;14.27;56.74
51245;BME280;37840;47.562;18.738;2023-04-25T11:32:42;98763.72;;;14.37;56.75
51245;BME280;37840;47.562;18.738;2023-04-25T11:35:09;98759.88;;;14.58;57.62
51245;BME280;37840;47.562;18.738;2023-04-25T11:37:36;98770.59;;;14.66;57.67
51245;BME280;37840;47.562;18.738;2023-04-25T11:40:03;98770.59;;;14.66;56.27
51245;BME280;37840;47.562;18.738;2023-04-25T11:42:32;98763.97;;;14.78;56.50
51245;BME280;37840;47.562;18.738;2023-04-25T11:45:03;98771.94;;;14.96;56.96
51245;BME280;37840;47.562;18.738;2023-04-25T11:47:33;98770.47;;;15.10;59.04
51245;BME280;37840;47.562;18.738;2023-04-25T11:50:00;98777.34;;;15.21;55.75
51245;BME280;37840;47.562;18.738;2023-04-25T11:52:39;98773.81;;;15.12;54.26
51245;BME280;37840;47.562;18.738;2023-04-25T11:55:12;98767.94;;;15.08;55.47
51245;BME280;37840;47.562;18.738;2023-04-25T11:57:39;98768.91;;;14.99;54.50
51245;BME280;37840;47.562;18.738;2023-04-25T12:00:12;98771.31;;;15.19;52.89
51245;BME280;37840;47.562;18.738;2023-04-25T12:02:46;98772.88;;;15.29;53.10
51245;BME280;37840;47.562;18.738;2023-04-25T12:05:14;98776.06;;;15.33;53.21
51245;BME280;37840;47.562;18.738;2023-04-25T12:07:41;98776.94;;;15.50;54.60
51245;BME280;37840;47.562;18.738;2023-04-25T12:10:17;98780.50;;;15.67;54.16
51245;BME280;37840;47.562;18.738;2023-04-25T12:12:45;98768.09;;;15.66;50.05
51245;BME280;37840;47.562;18.738;2023-04-25T12:15:12;98774.69;;;15.80;52.18
51245;BME280;37840;47.562;18.738;2023-04-25T12:17:42;98779.31;;;15.69;52.43
51245;BME280;37840;47.562;18.738;2023-04-25T12:20:12;98763.59;;;15.66;50.25
51245;BME280;37840;47.562;18.738;2023-04-25T12:22:44;98770.44;;;15.61;50.04
51245;BME280;37840;47.562;18.738;2023-04-25T12:25:12;98766.41;;;15.65;49.79
51245;BME280;37840;47.562;18.738;2023-04-25T12:27:38;98762.72;;;15.66;50.53
51245;BME280;37840;47.562;18.738;2023-04-25T12:30:07;98752.69;;;15.52;47.97
51245;BME280;37840;47.562;18.738;2023-04-25T12:32:34;98762.22;;;15.54;49.49
51245;BME280;37840;47.562;18.738;2023-04-25T12:35:00;98755.03;;;15.71;49.17
51245;BME280;37840;47.562;18.738;2023-04-25T12:37:26;98750.34;;;15.65;48.25
51245;BME280;37840;47.562;18.738;2023-04-25T12:39:52;98731.25;;;15.52;47.84
51245;BME280;37840;47.562;18.738;2023-04-25T12:42:17;98750.16;;;15.58;48.25
51245;BME280;37840;47.562;18.738;2023-04-25T12:44:43;98745.31;;;15.54;48.41
51245;BME280;37840;47.562;18.738;2023-04-25T12:47:09;98737.28;;;15.54;47.64
51245;BME280;37840;47.562;18.738;2023-04-25T12:49:36;98741.09;;;15.43;47.82
51245;BME280;37840;47.562;18.738;2023-04-25T12:52:01;98740.94;;;15.53;47.74
51245;BME280;37840;47.562;18.738;2023-04-25T12:54:27;98743.13;;;15.65;49.12
51245;BME280;37840;47.562;18.738;2023-04-25T12:56:53;98734.25;;;15.57;46.01
51245;BME280;37840;47.562;18.738;2023-04-25T12:59:20;98732.41;;;15.57;47.76
51245;BME280;37840;47.562;18.738;2023-04-25T13:01:47;98726.03;;;15.50;47.04
51245;BME280;37840;47.562;18.738;2023-04-25T13:04:12;98740.09;;;15.52;48.55